createdAt,value
2018-05-10T13:09:43.341Z,52.31
2018-05-10T13:10:43.649Z,52.89
2018-05-10T13:11:43.672Z,52.98
2018-05-10T13:12:43.509Z,53.08
2018-05-10T13:13:43.975Z,52.5
2018-05-10T13:14:44.432Z,53.35
2018-05-10T13:15:45.079Z,53.25
2018-05-10T13:16:44.913Z,52.96
2018-05-10T13:17:44.684Z,52.86
2018-05-10T13:18:45.067Z,52.96
2018-05-10T13:19:44.837Z,52.28
2018-05-10T13:20:45.125Z,52.47
2018-05-10T13:21:45.879Z,52.86
2018-05-10T13:22:45.584Z,53.13
2018-05-10T13:23:46.100Z,53.71
2018-05-10T13:24:46.166Z,53.13
2018-05-10T13:25:45.898Z,54.1
2018-05-10T13:26:46.653Z,53.71
2018-05-10T13:27:46.676Z,53.13
2018-05-10T13:28:46.751Z,53.52
2018-05-10T13:29:46.771Z,56.72
2018-05-10T13:30:46.955Z,54.07
2018-05-10T13:31:47.179Z,54.46
2018-05-10T13:32:47.217Z,53.97
2018-05-10T13:33:47.243Z,53.3
2018-05-10T13:34:47.292Z,53.59
2018-05-10T13:35:47.323Z,54.85
2018-05-10T13:36:47.089Z,53.69
2018-05-10T13:37:47.119Z,52.42
2018-05-10T13:38:47.849Z,52.33
2018-05-10T13:39:47.616Z,52.42
2018-05-10T13:40:47.779Z,53.13
2018-05-10T13:41:48.300Z,50.99
2018-05-10T13:42:48.312Z,50.8
2018-05-10T13:43:48.321Z,51.57
2018-05-10T13:44:48.075Z,52.64
2018-05-10T13:45:48.352Z,52.91
2018-05-10T13:46:48.654Z,53.22
2018-05-10T13:47:48.930Z,52.91
2018-05-10T13:48:48.672Z,52.55
2018-05-10T13:49:48.907Z,52.55
2018-05-10T13:50:49.648Z,52.94
2018-05-10T13:51:49.568Z,52.35
2018-05-10T13:52:49.773Z,52.45
2018-05-10T13:53:49.873Z,51.97
2018-05-10T13:54:50.150Z,51.97
2018-05-10T13:55:50.095Z,53.13
2018-05-10T13:56:50.136Z,51.99
2018-05-10T13:57:50.352Z,51.28
2018-05-10T13:58:50.685Z,51.28
2018-05-10T13:59:50.732Z,51.67
2018-05-10T14:00:50.780Z,51.38
2018-05-10T14:01:50.796Z,51.57
2018-05-10T14:02:50.837Z,51.57
2018-05-10T14:03:51.220Z,51.65
2018-05-10T14:04:50.929Z,51.97
2018-05-10T14:05:51.211Z,51.97
2018-05-10T14:06:51.131Z,52.06
2018-05-10T14:07:51.908Z,52.42
2018-05-10T14:08:52.371Z,52.42
2018-05-10T14:09:52.312Z,52.23
2018-05-10T14:10:52.434Z,51.84
2018-05-10T14:11:52.842Z,52.23
2018-05-10T14:12:52.496Z,53.1
2018-05-10T14:13:52.568Z,53.1
2018-05-10T14:14:52.857Z,52.91
2018-05-10T14:15:53.151Z,53.08
2018-05-10T14:16:52.963Z,53.27
2018-05-10T14:17:53.289Z,53.56
2018-05-10T14:18:53.809Z,54.24
2018-05-10T14:19:53.719Z,54.24
2018-05-10T14:20:53.635Z,54.02
2018-05-10T14:21:53.407Z,54.31
2018-05-10T14:22:53.498Z,55.28
2018-05-10T14:23:53.441Z,55.08
2018-05-10T14:24:53.671Z,57.09
2018-05-10T14:25:54.266Z,55.74
2018-05-10T14:26:54.041Z,55.16
2018-05-10T14:27:54.350Z,55.64
2018-05-10T14:28:54.546Z,55.93
2018-05-10T14:29:54.716Z,55.83
2018-05-10T14:30:54.769Z,55.83
2018-05-10T14:31:55.050Z,56.1
2018-05-10T14:32:55.061Z,56
2018-05-10T14:33:55.286Z,56.59
2018-05-10T14:34:55.307Z,56.29
2018-05-10T14:35:55.067Z,56.77
2018-05-10T14:36:55.420Z,56.85
2018-05-10T14:37:55.399Z,57.17
2018-05-10T14:38:56.418Z,56.56
2018-05-10T14:39:55.898Z,56.75
2018-05-10T14:40:56.332Z,56.36
2018-05-10T14:41:56.196Z,56.75
2018-05-10T14:42:55.932Z,56.65
2018-05-10T14:43:56.449Z,56.85
2018-05-10T14:44:56.881Z,56.85
2018-05-10T14:45:57.209Z,57.43
2018-05-10T14:46:57.303Z,57.53
2018-05-10T14:47:57.352Z,57.62
2018-05-10T14:48:57.335Z,57.53
2018-05-10T14:49:57.973Z,57.62
2018-05-10T14:50:58.131Z,57.71
2018-05-10T14:51:57.969Z,58.49
2018-05-10T14:52:58.021Z,60.33
2018-05-10T14:53:58.256Z,63.49
2018-05-10T14:54:57.599Z,63.69
2018-05-10T14:55:57.690Z,63.21
2018-05-10T14:56:57.650Z,62.53
2018-05-10T14:57:57.882Z,63.49
2018-05-10T14:58:58.201Z,62.63
2018-05-10T14:59:58.213Z,62.72
2018-05-10T15:00:57.958Z,63.01
2018-05-10T15:01:58.411Z,62.98
2018-05-10T15:02:58.911Z,62.98
2018-05-10T15:03:58.285Z,64.34
2018-05-10T15:04:58.601Z,65.59
2018-05-10T15:05:58.596Z,65.59
2018-05-10T15:06:58.330Z,64.43
2018-05-10T15:07:58.392Z,64.62
2018-05-10T15:08:58.696Z,65.59
2018-05-10T15:09:58.892Z,65.69
2018-05-10T15:10:58.497Z,65.01
2018-05-10T15:11:58.789Z,66.95
2018-05-10T15:12:59.108Z,67.43
2018-05-10T15:13:58.911Z,66.82
2018-05-10T15:14:59.462Z,67.4
2018-05-10T15:15:59.647Z,65.95
2018-05-10T15:17:00.110Z,65.79
2018-05-10T15:18:00.461Z,67.3
2018-05-10T15:19:00.413Z,66.82
2018-05-10T15:20:00.950Z,65.75
2018-05-10T15:21:00.917Z,66.43
2018-05-10T15:22:01.230Z,66.91
2018-05-10T15:23:01.434Z,66.53
2018-05-10T15:24:02.118Z,67.21
2018-05-10T15:25:02.013Z,66.63
2018-05-10T15:26:02.364Z,66.72
2018-05-10T15:27:02.389Z,66.43
2018-05-10T15:28:02.414Z,66.53
2018-05-10T15:29:02.493Z,67.01
2018-05-10T15:30:02.765Z,67.69
2018-05-10T15:31:02.822Z,67.01
2018-05-10T15:32:02.802Z,66.63
2018-05-10T15:33:02.883Z,66.53
2018-05-10T15:34:02.883Z,66.63
2018-05-10T15:35:03.062Z,66.63
2018-05-10T15:36:02.673Z,66.82
2018-05-10T15:37:02.711Z,67.3
2018-05-10T15:38:03.143Z,67.3
2018-05-10T15:39:03.674Z,67.21
2018-05-10T15:40:03.439Z,67.49
2018-05-10T15:41:03.262Z,69.04
2018-05-10T15:42:03.662Z,67.79
2018-05-10T15:43:03.705Z,67.49
2018-05-10T15:44:03.740Z,67.3
2018-05-10T15:45:03.509Z,68.17
2018-05-10T15:46:04.130Z,67.69
2018-05-10T15:47:04.470Z,69.43
2018-05-10T15:48:04.448Z,68.14
2018-05-10T15:49:04.260Z,67.66
2018-05-10T15:50:04.678Z,67.75
2018-05-10T15:51:04.928Z,67.46
2018-05-10T15:52:04.968Z,68.82
2018-05-10T15:53:05.484Z,67.56
2018-05-10T15:54:05.537Z,67.36
2018-05-10T15:55:05.424Z,67.36
2018-05-10T15:56:05.584Z,67.66
2018-05-10T15:57:06.018Z,67.94
2018-05-10T15:58:05.780Z,67.56
2018-05-10T15:59:06.104Z,67.36
2018-05-10T16:00:12.435Z,66.59
2018-05-10T16:01:06.273Z,66.88
2018-05-10T16:02:06.689Z,66.98
2018-05-10T16:03:06.340Z,66.5
2018-05-10T16:04:06.288Z,67.27
2018-05-10T16:05:06.328Z,67.27
2018-05-10T16:06:07.321Z,68.14
2018-05-10T16:07:06.851Z,68.52
2018-05-10T16:08:07.236Z,68.91
2018-05-10T16:09:07.111Z,69.98
2018-05-10T16:10:07.490Z,70.84
2018-05-10T16:11:07.619Z,69.59
2018-05-10T16:12:07.179Z,68.62
2018-05-10T16:13:07.437Z,68.72
2018-05-10T16:14:07.886Z,67.27
2018-05-10T16:15:08.432Z,66.59
2018-05-10T16:16:08.427Z,67.33
2018-05-10T16:17:08.732Z,68.52
2018-05-10T16:18:08.823Z,66.2
2018-05-10T16:19:08.926Z,65.78
2018-05-10T16:20:09.028Z,66.36
2018-05-10T16:21:08.812Z,67.14
2018-05-10T16:22:08.567Z,67.33
2018-05-10T16:23:09.066Z,66.75
2018-05-10T16:24:08.966Z,66.75
2018-05-10T16:25:09.015Z,66.85
2018-05-10T16:26:09.206Z,66.56
2018-05-10T16:27:08.998Z,66.56
2018-05-10T16:28:09.318Z,66.85
2018-05-10T16:29:09.329Z,67.62
2018-05-10T16:30:09.479Z,67.43
2018-05-10T16:31:09.524Z,66.85
2018-05-10T16:32:09.689Z,65.98
2018-05-10T16:33:10.017Z,66.66
2018-05-10T16:34:10.068Z,66.85
2018-05-10T16:35:10.071Z,66.75
2018-05-10T16:36:09.908Z,66.56
2018-05-10T16:37:10.222Z,67.24
2018-05-10T16:38:10.683Z,67.24
2018-05-10T16:39:11.093Z,66.66
2018-05-10T16:40:11.179Z,66.36
2018-05-10T16:41:10.888Z,67.49
2018-05-10T16:42:11.204Z,67.72
2018-05-10T16:43:11.254Z,66.66
2018-05-10T16:44:11.282Z,66.66
2018-05-10T16:45:11.342Z,66.56
2018-05-10T16:46:11.348Z,67.24
2018-05-10T16:47:11.846Z,67.59
2018-05-10T16:48:12.157Z,69.23
2018-05-10T16:49:12.160Z,69.32
2018-05-10T16:50:12.184Z,70.1
2018-05-10T16:51:12.905Z,70.2
2018-05-10T16:52:12.298Z,70.1
2018-05-10T16:53:12.462Z,70
2018-05-10T16:54:12.208Z,69.81
2018-05-10T16:55:12.882Z,69.71
2018-05-10T16:56:13.073Z,68.94
2018-05-10T16:57:13.087Z,65.37
2018-05-10T16:58:13.542Z,64.89
2018-05-10T16:59:13.769Z,65.85
2018-05-10T17:00:13.784Z,68.84
2018-05-10T17:01:14.147Z,69.23
2018-05-10T17:02:14.172Z,70.1
2018-05-10T17:03:14.288Z,69.81
2018-05-10T17:04:14.340Z,70.1
2018-05-10T17:05:14.090Z,70.68
2018-05-10T17:06:15.119Z,70.39
2018-05-10T17:07:14.880Z,70.58
2018-05-10T17:08:14.939Z,69.81
2018-05-10T17:09:15.354Z,70.1
2018-05-10T17:10:15.382Z,69.62
2018-05-10T17:11:15.418Z,69.81
2018-05-10T17:12:15.506Z,69.81
2018-05-10T17:13:15.490Z,70.1
2018-05-10T17:14:15.528Z,69.9
2018-05-10T17:15:15.563Z,70.48
2018-05-10T17:16:15.762Z,69.9
2018-05-10T17:17:15.640Z,69.81
2018-05-10T17:18:15.681Z,69.81
2018-05-10T17:19:16.084Z,69.32
2018-05-10T17:20:15.905Z,69.13
2018-05-10T17:21:16.202Z,69.32
2018-05-10T17:22:16.356Z,69.13
2018-05-10T17:23:17.051Z,70
2018-05-10T17:24:17.277Z,70.39
2018-05-10T17:25:17.286Z,70.58
2018-05-10T17:26:17.344Z,70.68
2018-05-10T17:27:17.394Z,70.68
2018-05-10T17:28:17.177Z,70.64
2018-05-10T17:29:17.492Z,71.03
2018-05-10T17:30:17.640Z,71.32
2018-05-10T17:31:18.187Z,71.7
2018-05-10T17:32:17.822Z,71.12
2018-05-10T17:33:18.166Z,71.12
2018-05-10T17:34:17.415Z,71.42
2018-05-10T17:35:18.008Z,71.61
2018-05-10T17:36:17.555Z,71.8
2018-05-10T17:37:17.953Z,70.84
2018-05-10T17:38:17.731Z,70.94
2018-05-10T17:39:17.986Z,71.12
2018-05-10T17:40:17.983Z,71.03
2018-05-10T17:41:18.084Z,70.45
2018-05-10T17:42:17.886Z,69.97
2018-05-10T17:43:18.407Z,70.36
2018-05-10T17:44:18.214Z,70.06
2018-05-10T17:45:18.186Z,69.2
2018-05-10T17:46:18.717Z,69.68
2018-05-10T17:47:18.829Z,71.12
2018-05-10T17:48:19.091Z,72.38
2018-05-10T17:49:18.298Z,72.28
2018-05-10T17:56:25.776Z,78.19
2018-05-10T17:57:26.133Z,78.48
2018-05-10T17:58:29.090Z,80.12
2018-05-10T17:59:24.769Z,80.22
2018-05-10T18:00:24.810Z,80.37
2018-05-10T18:01:25.266Z,81.14
2018-05-10T18:02:25.024Z,81.33
2018-05-10T18:03:25.345Z,81.04
2018-05-10T18:04:25.120Z,81.14
2018-05-10T18:05:25.454Z,81.72
2018-05-10T18:06:25.451Z,81.14
2018-05-10T18:07:25.522Z,81.33
2018-05-10T18:08:25.534Z,82.1
2018-05-10T18:09:25.436Z,83.26
2018-05-10T18:10:26.186Z,82.39
2018-05-10T18:11:26.208Z,82.39
2018-05-10T18:12:26.255Z,82.1
2018-05-10T18:13:26.290Z,81.96
2018-05-10T18:14:26.320Z,83.12
2018-05-10T18:15:26.595Z,83.61
2018-05-10T18:16:26.893Z,82.74
2018-05-10T18:17:26.912Z,82.74
2018-05-10T18:18:26.945Z,82.45
2018-05-10T18:19:26.697Z,82.64
2018-05-10T18:20:26.737Z,82.54
2018-05-10T18:21:27.561Z,83.22
2018-05-10T18:22:27.528Z,83.31
2018-05-10T18:23:27.774Z,83.51
2018-05-10T18:24:27.356Z,83.51
2018-05-10T18:25:28.111Z,82.93
2018-05-10T18:26:27.908Z,83.12
2018-05-10T18:27:27.918Z,83.12
2018-05-10T18:28:27.718Z,83.03
2018-05-10T18:29:28.282Z,84.38
2018-05-10T18:30:27.958Z,83.8
2018-05-10T18:31:28.526Z,83.41
2018-05-10T18:32:28.556Z,83.89
2018-05-10T18:33:28.595Z,84.38
2018-05-10T18:34:28.626Z,83.61
2018-05-10T18:35:28.665Z,83.8
2018-05-10T18:36:28.703Z,84.14
2018-05-10T18:37:28.993Z,85
2018-05-10T18:38:28.788Z,85.49
2018-05-10T18:39:28.528Z,85.97
2018-05-10T18:40:28.580Z,85.49
2018-05-10T18:41:28.611Z,85.87
2018-05-10T18:42:29.159Z,86.07
2018-05-10T18:43:29.677Z,86.45
2018-05-10T18:44:29.433Z,86.55
2018-05-10T18:45:29.761Z,86.93
2018-05-10T18:46:30.378Z,86.93
2018-05-10T18:47:30.050Z,86.6
2018-05-10T18:48:30.092Z,87.18
2018-05-10T18:49:30.568Z,87.56
2018-05-10T18:50:30.606Z,87.85
2018-05-10T18:51:30.631Z,87.56
2018-05-10T18:52:30.683Z,88.14
2018-05-10T18:53:31.232Z,87.85
2018-05-10T18:54:31.322Z,87.95
2018-05-10T18:55:31.277Z,88.14
2018-05-10T18:56:31.300Z,88.24
2018-05-10T18:57:31.551Z,88.53
2018-05-10T18:58:31.457Z,88.43
2018-05-10T18:59:32.189Z,88.81
2018-05-10T19:00:31.953Z,89.01
2018-05-10T19:01:32.264Z,89.2
2018-05-10T19:02:32.423Z,89.78
2018-05-10T19:03:32.651Z,89.78
2018-05-10T19:04:32.850Z,89.58
2018-05-10T19:05:33.026Z,89.58
2018-05-10T19:06:33.782Z,89.58
2018-05-10T19:07:33.300Z,90.12
2018-05-10T19:08:33.536Z,90.31
2018-05-10T19:09:33.843Z,90.69
2018-05-10T19:10:33.836Z,90.89
2018-05-10T19:11:34.137Z,91.27
2018-05-10T19:12:34.440Z,91.9
2018-05-10T19:13:34.790Z,92.76
2018-05-10T19:14:34.466Z,92.09
2018-05-10T19:15:34.252Z,92.29
2018-05-10T19:16:34.534Z,92.67
2018-05-10T19:17:34.572Z,92.67
2018-05-10T19:18:34.397Z,92.29
2018-05-10T19:19:34.685Z,92.47
2018-05-10T19:20:34.709Z,93.53
2018-05-10T19:21:34.712Z,92.38
2018-05-10T19:22:34.749Z,92.86
2018-05-10T19:23:34.740Z,92.09
2018-05-10T19:24:34.759Z,92.19
2018-05-10T19:25:35.049Z,92.43
2018-05-10T19:26:35.860Z,92.38
2018-05-10T19:27:35.830Z,92.38
2018-05-10T19:28:36.344Z,92.52
2018-05-10T19:29:36.502Z,92.52
2018-05-10T19:30:36.443Z,93.29
2018-05-10T19:31:36.944Z,93.58
2018-05-10T19:32:36.981Z,93.58
2018-05-10T19:33:37.100Z,93.49
2018-05-10T19:34:37.179Z,93.58
2018-05-10T19:35:37.370Z,93.68
2018-05-10T19:36:36.846Z,94.26
2018-05-10T19:37:37.341Z,93.96
2018-05-10T19:38:37.807Z,94.54
2018-05-10T19:39:37.507Z,94.64
2018-05-10T19:40:38.115Z,94.98
2018-05-10T19:41:38.106Z,94.98
2018-05-10T19:42:38.153Z,95.55
2018-05-10T19:43:37.897Z,95.45
2018-05-10T19:44:37.937Z,95.65
2018-05-10T19:45:39.253Z,96.61
2018-05-10T19:46:38.793Z,96.22
2018-05-10T19:47:38.549Z,97.09
2018-05-10T19:48:38.555Z,97.09
2018-05-10T19:49:38.877Z,97.28
2018-05-10T19:50:38.956Z,97.19
2018-05-10T19:51:39.180Z,97.38
2018-05-10T19:52:39.215Z,97.38
2018-05-10T19:53:38.937Z,97.91
2018-05-10T19:54:39.985Z,98.67
2018-05-10T19:55:40.259Z,98.96
2018-05-10T19:56:39.603Z,99.44
2018-05-10T19:57:39.779Z,99.63
2018-05-10T19:58:39.781Z,99.34
2018-05-10T19:59:40.606Z,99.15
2018-05-10T20:00:39.601Z,99.92
2018-05-10T20:01:40.192Z,99.99
2018-05-10T20:02:39.846Z,99.99
2018-05-10T20:03:39.726Z,99.99
2018-05-10T20:04:40.187Z,99.99
2018-05-10T20:05:40.165Z,99.99
2018-05-10T20:06:39.993Z,99.99
2018-05-10T20:07:40.154Z,99.99
2018-05-10T20:08:40.573Z,99.99
2018-05-10T20:09:40.441Z,99.99
2018-05-10T20:10:40.454Z,99.99
2018-05-10T20:11:40.672Z,99.99
2018-05-10T20:12:41.593Z,99.99
2018-05-10T20:13:41.800Z,99.99
2018-05-10T20:14:41.649Z,99.99
2018-05-10T20:15:42.125Z,99.99
2018-05-10T20:16:42.151Z,99.99
2018-05-10T20:17:42.376Z,99.99
2018-05-10T20:18:42.414Z,99.99
2018-05-10T20:19:42.664Z,99.99
2018-05-10T20:20:42.381Z,99.99
2018-05-10T20:21:42.999Z,99.99
2018-05-10T20:22:42.992Z,99.99
2018-05-10T20:23:42.817Z,99.99
2018-05-10T20:24:43.488Z,99.99
2018-05-10T20:25:43.191Z,99.99
2018-05-10T20:26:43.487Z,99.99
2018-05-10T20:27:43.753Z,99.99
2018-05-10T20:28:43.925Z,99.99
2018-05-10T20:29:43.505Z,99.99
2018-05-10T20:30:43.712Z,99.99
2018-05-10T20:31:44.198Z,99.99
2018-05-10T20:32:44.222Z,99.99
2018-05-10T20:33:44.426Z,99.99
2018-05-10T20:34:44.463Z,99.99
2018-05-10T20:35:44.779Z,99.99
2018-05-10T20:36:44.820Z,99.99
2018-05-10T20:37:44.845Z,99.99
2018-05-10T20:38:45.283Z,99.99
2018-05-10T20:39:45.326Z,99.99
2018-05-10T20:40:45.507Z,99.99
2018-05-10T20:41:45.706Z,99.99
2018-05-10T20:42:46.020Z,99.99
2018-05-10T20:43:46.330Z,99.99
2018-05-10T20:44:46.691Z,99.99
2018-05-10T20:45:46.538Z,99.99
2018-05-10T20:46:46.594Z,99.99
2018-05-10T20:47:46.525Z,99.99
2018-05-10T20:48:46.756Z,99.99
2018-05-10T20:49:47.215Z,99.99
2018-05-10T20:50:47.419Z,99.99
2018-05-10T20:51:47.440Z,99.99
2018-05-10T20:52:47.197Z,99.99
2018-05-10T20:53:47.496Z,99.99
2018-05-10T20:54:47.567Z,99.99
2018-05-10T20:55:47.658Z,99.99
2018-05-10T20:56:47.606Z,99.99
2018-05-10T20:57:48.073Z,99.99
2018-05-10T20:58:48.283Z,99.99
2018-05-10T20:59:48.318Z,99.99
2018-05-10T21:00:48.852Z,99.99
2018-05-10T21:01:48.613Z,99.99
2018-05-10T21:02:48.408Z,99.99
2018-05-10T21:03:48.465Z,99.99
2018-05-10T21:04:48.481Z,99.99
2018-05-10T21:05:48.490Z,99.99
2018-05-10T21:06:49.882Z,99.99
2018-05-10T21:07:49.708Z,99.99
2018-05-10T21:08:49.590Z,99.99
2018-05-10T21:09:50.076Z,99.99
2018-05-10T21:10:50.031Z,99.99
2018-05-10T21:11:50.425Z,99.99
2018-05-10T21:12:50.867Z,99.99
2018-05-10T21:13:50.759Z,99.99
2018-05-10T21:14:51.072Z,99.99
2018-05-10T21:15:51.479Z,99.99
2018-05-10T21:16:51.635Z,99.99
2018-05-10T21:17:51.682Z,99.99
2018-05-10T21:18:51.843Z,99.99
2018-05-10T21:19:52.282Z,99.99
2018-05-10T21:20:52.421Z,99.99
2018-05-10T21:21:52.492Z,99.99
2018-05-10T21:22:52.811Z,99.99
2018-05-10T21:23:52.878Z,99.99
2018-05-10T21:24:53.231Z,99.99
2018-05-10T21:25:52.959Z,99.99
2018-05-10T21:26:52.960Z,99.99
2018-05-10T21:27:53.399Z,99.99
2018-05-10T21:28:53.409Z,99.99
2018-05-10T21:29:53.589Z,99.99
2018-05-10T21:30:53.925Z,99.99
2018-05-10T21:31:54.591Z,99.99
2018-05-10T21:32:54.475Z,99.99
2018-05-10T21:33:54.880Z,99.99
2018-05-10T21:34:54.545Z,99.99
2018-05-10T21:35:54.515Z,99.99
2018-05-10T21:36:54.926Z,99.99
2018-05-10T21:37:55.031Z,99.99
2018-05-10T21:38:55.139Z,99.99
2018-05-10T21:39:54.888Z,99.99
2018-05-10T21:40:55.189Z,99.99
2018-05-10T21:41:55.371Z,99.99
2018-05-10T21:42:56.194Z,99.99
2018-05-10T21:43:56.068Z,99.99
2018-05-10T21:44:56.218Z,99.99
2018-05-10T21:45:56.527Z,99.99
2018-05-10T21:46:56.728Z,99.99
2018-05-10T21:47:57.141Z,99.99
2018-05-10T21:48:57.178Z,99.99
2018-05-10T21:49:57.397Z,99.99
2018-05-10T21:50:57.141Z,99.99
2018-05-10T21:51:57.439Z,99.99
2018-05-10T21:52:57.514Z,99.99
2018-05-10T21:53:57.241Z,99.99
2018-05-10T21:54:57.778Z,99.99
2018-05-10T21:55:57.650Z,99.99
2018-05-10T21:56:57.940Z,99.99
2018-05-10T21:57:58.133Z,99.99
2018-05-10T21:58:58.010Z,99.99
2018-05-10T21:59:58.431Z,99.99
2018-05-10T22:00:59.151Z,99.99
2018-05-10T22:01:59.151Z,99.99
2018-05-10T22:02:58.269Z,99.99
2018-05-10T22:03:58.585Z,99.99
2018-05-10T22:04:58.817Z,99.99
2018-05-10T22:05:58.851Z,99.99
2018-05-10T22:06:58.885Z,99.99
2018-05-10T22:07:58.938Z,99.99
2018-05-10T22:08:59.006Z,99.99
2018-05-10T22:09:58.974Z,99.99
2018-05-10T22:10:59.024Z,99.99
2018-05-10T22:11:59.496Z,99.99
2018-05-10T22:12:59.287Z,99.99
2018-05-10T22:13:59.976Z,99.99
2018-05-10T22:14:59.971Z,99.99
2018-05-10T22:16:00.242Z,99.99
2018-05-10T22:17:00.465Z,99.99
2018-05-10T22:17:59.968Z,99.99
2018-05-10T22:19:00.278Z,99.99
2018-05-10T22:20:00.734Z,99.99
2018-05-10T22:21:00.936Z,99.99
2018-05-10T22:22:00.891Z,99.99
2018-05-10T22:23:01.198Z,99.99
2018-05-10T22:24:00.993Z,99.99
2018-05-10T22:25:00.987Z,99.99
2018-05-10T22:26:01.465Z,99.99
2018-05-10T22:27:01.496Z,99.99
2018-05-10T22:28:01.528Z,99.99
2018-05-10T22:29:01.572Z,99.99
2018-05-10T22:30:01.535Z,99.99
2018-05-10T22:31:02.272Z,99.99
2018-05-10T22:32:01.756Z,99.99
2018-05-10T22:33:01.427Z,99.99
2018-05-10T22:34:03.150Z,99.99
2018-05-10T22:35:02.646Z,99.99
2018-05-10T22:36:03.099Z,99.99
2018-05-10T22:37:03.098Z,99.99
2018-05-10T22:38:02.830Z,99.99
2018-05-10T22:39:03.375Z,99.99
2018-05-10T22:40:03.092Z,99.99
2018-05-10T22:41:03.531Z,99.99
2018-05-10T22:42:04.162Z,99.99
2018-05-10T22:43:03.257Z,99.99
2018-05-10T22:44:04.310Z,99.99
2018-05-10T22:45:04.252Z,99.99
2018-05-10T22:46:04.242Z,99.99
2018-05-10T22:47:03.896Z,99.99
2018-05-10T22:48:04.531Z,99.99
2018-05-10T22:49:04.628Z,99.99
2018-05-10T22:50:05.117Z,99.99
2018-05-10T22:51:05.155Z,99.99
2018-05-10T22:52:05.582Z,99.99
2018-05-10T22:53:05.543Z,99.99
2018-05-10T22:54:05.336Z,99.99
2018-05-10T22:55:05.285Z,99.99
2018-05-10T22:56:05.442Z,99.99
2018-05-10T22:57:05.408Z,99.99
2018-05-10T22:58:05.426Z,99.99
2018-05-10T22:59:05.462Z,99.99
2018-05-10T23:00:12.169Z,99.99
2018-05-10T23:01:12.206Z,99.99
2018-05-10T23:02:12.442Z,99.99
2018-05-10T23:03:12.458Z,99.99
2018-05-10T23:04:12.482Z,99.99
2018-05-10T23:05:12.697Z,99.99
2018-05-10T23:06:12.854Z,99.99
2018-05-10T23:07:12.756Z,99.99
2018-05-10T23:08:12.782Z,99.99
2018-05-10T23:09:12.963Z,99.99
2018-05-10T23:10:13.084Z,99.99
2018-05-10T23:11:13.024Z,99.99
2018-05-10T23:12:13.420Z,99.99
2018-05-10T23:13:13.311Z,99.99
2018-05-10T23:14:13.465Z,99.99
2018-05-10T23:15:13.881Z,99.99
2018-05-10T23:16:13.525Z,99.99
2018-05-10T23:17:13.525Z,99.99
2018-05-10T23:18:13.214Z,99.99
2018-05-10T23:19:13.407Z,99.99
2018-05-10T23:20:14.038Z,99.99
2018-05-10T23:21:13.721Z,99.99
2018-05-10T23:22:14.222Z,99.99
2018-05-10T23:23:14.266Z,99.99
2018-05-10T23:24:14.039Z,99.99
2018-05-10T23:25:14.518Z,99.99
2018-05-10T23:26:14.647Z,99.99
2018-05-10T23:27:14.409Z,99.99
2018-05-10T23:28:14.717Z,99.99
2018-05-10T23:29:14.472Z,99.99
2018-05-10T23:30:14.944Z,99.99
2018-05-10T23:31:14.980Z,99.99
2018-05-10T23:32:15.012Z,99.99
2018-05-10T23:33:15.531Z,99.99
2018-05-10T23:34:15.468Z,99.99
2018-05-10T23:35:15.210Z,99.99
2018-05-10T23:36:15.572Z,99.99
2018-05-10T23:37:15.418Z,99.99
2018-05-10T23:38:15.417Z,99.99
2018-05-10T23:39:16.064Z,99.99
2018-05-10T23:40:16.087Z,99.99
2018-05-10T23:41:15.844Z,99.99
2018-05-10T23:42:16.466Z,99.99
2018-05-10T23:43:16.481Z,99.99
2018-05-10T23:44:16.568Z,99.99
2018-05-10T23:45:16.552Z,99.99
2018-05-10T23:46:16.408Z,99.99
2018-05-10T23:47:16.823Z,99.99
2018-05-10T23:48:17.073Z,99.99
2018-05-10T23:49:16.908Z,99.99
2018-05-10T23:50:16.922Z,99.99
2018-05-10T23:51:16.679Z,99.99
2018-05-10T23:52:16.988Z,99.99
2018-05-10T23:53:17.024Z,99.99
2018-05-10T23:54:17.074Z,99.99
2018-05-10T23:55:17.104Z,99.99
2018-05-10T23:56:17.130Z,99.99
2018-05-10T23:57:17.534Z,99.99
2018-05-10T23:58:17.558Z,99.99
2018-05-10T23:59:17.769Z,99.99
